Time;durP1;ratioP1;P1;durP2;ratioP2;P2;SDS_P1;SDS_P2;PMS_P1;PMS_P2;Temp;Humidity;BMP_temperature;BMP_pressure;BME280_temperature;BME280_humidity;BME280_pressure;Samples;Min_cycle;Max_cycle;Signal;HPM_P1;HPM_P2
2022/12/10 00:01:09;;;;;;;7.25;5.50;;;;;;;;;;4864978;29;20041;-92
2022/12/10 00:03:35;;;;;;;11.15;8.13;;;;;;;;;;4863464;29;20025;-93
2022/12/10 00:06:02;;;;;;;16.20;9.90;;;;;;;;;;4864690;29;20047;-95
2022/12/10 00:08:28;;;;;;;11.05;8.38;;;;;;;;;;4864845;29;20089;-92
2022/12/10 00:10:54;;;;;;;13.52;9.60;;;;;;;;;;4866718;29;20092;-94
2022/12/10 00:13:24;;;;;;;12.63;8.40;;;;;;;;;;4864931;29;20030;-95
2022/12/10 00:15:50;;;;;;;13.15;10.00;;;;;;;;;;4866622;29;20040;-91
2022/12/10 00:18:16;;;;;;;13.98;9.88;;;;;;;;;;4870847;29;20029;-94
2022/12/10 00:20:53;;;;;;;15.77;11.45;;;;;;;;;;4869243;29;20033;-93
2022/12/10 00:23:19;;;;;;;17.63;12.30;;;;;;;;;;4869289;29;20041;-94
2022/12/10 00:25:47;;;;;;;14.20;10.20;;;;;;;;;;4868268;29;20041;-95
2022/12/10 00:28:15;;;;;;;17.27;12.48;;;;;;;;;;4869201;29;20025;-95
2022/12/10 00:30:42;;;;;;;16.88;11.48;;;;;;;;;;4868957;29;20041;-95
2022/12/10 00:33:09;;;;;;;19.45;12.63;;;;;;;;;;4870221;29;20116;-95
2022/12/10 00:35:36;;;;;;;15.18;10.57;;;;;;;;;;4882206;29;20089;-95
2022/12/10 00:38:03;;;;;;;17.42;12.77;;;;;;;;;;4868181;29;20014;-93
2022/12/10 00:40:29;;;;;;;17.00;12.85;;;;;;;;;;4866834;29;20484;-94
2022/12/10 00:42:55;;;;;;;18.23;12.52;;;;;;;;;;4865694;29;20033;-95
2022/12/10 00:45:21;;;;;;;17.98;12.20;;;;;;;;;;4853730;29;20029;-95
2022/12/10 00:47:48;;;;;;;16.17;11.95;;;;;;;;;;4865004;29;20048;-95
2022/12/10 00:50:14;;;;;;;16.45;12.15;;;;;;;;;;4865410;29;20044;-95
2022/12/10 00:52:40;;;;;;;17.15;11.20;;;;;;;;;;4864052;29;20391;-96
2022/12/10 00:55:06;;;;;;;14.77;10.50;;;;;;;;;;4835967;29;20034;-95
2022/12/10 01:00:36;;;;;;;17.77;12.05;;;;;;;;;;4883009;23;20497;-94
2022/12/10 01:06:13;;;;;;;19.05;12.63;;;;;;;;;;4880317;23;20101;-94
2022/12/10 01:08:40;;;;;;;18.83;12.20;;;;;;;;;;4850700;29;20097;-93
2022/12/10 01:11:09;;;;;;;20.08;13.05;;;;;;;;;;4846139;29;20041;-95
2022/12/10 01:13:35;;;;;;;17.05;11.82;;;;;;;;;;4849261;29;20028;-95
2022/12/10 01:16:03;;;;;;;15.13;10.38;;;;;;;;;;4850106;29;20121;-95
2022/12/10 01:18:29;;;;;;;14.00;9.98;;;;;;;;;;4847874;29;20026;-96
2022/12/10 01:20:55;;;;;;;16.58;12.07;;;;;;;;;;4852232;29;20033;-95
2022/12/10 01:23:23;;;;;;;15.63;11.50;;;;;;;;;;4848215;29;20049;-96
2022/12/10 01:25:49;;;;;;;16.13;11.70;;;;;;;;;;4848426;29;20190;-96
2022/12/10 01:28:15;;;;;;;17.27;11.65;;;;;;;;;;4850170;29;20039;-95
2022/12/10 01:30:41;;;;;;;17.45;12.43;;;;;;;;;;4850927;29;20082;-94
2022/12/10 01:33:08;;;;;;;17.05;12.07;;;;;;;;;;4855864;29;20030;-94
2022/12/10 01:35:36;;;;;;;17.52;11.90;;;;;;;;;;4853793;29;20030;-96
2022/12/10 01:38:03;;;;;;;18.60;13.00;;;;;;;;;;4853380;29;20025;-96
2022/12/10 01:40:31;;;;;;;15.00;10.43;;;;;;;;;;4868483;29;20127;-93
2022/12/10 01:42:57;;;;;;;15.25;11.25;;;;;;;;;;4847814;29;20041;-96
2022/12/10 01:45:24;;;;;;;15.02;10.82;;;;;;;;;;4837180;29;20064;-95
2022/12/10 01:47:51;;;;;;;15.45;11.18;;;;;;;;;;4854793;29;20040;-96
2022/12/10 01:50:17;;;;;;;14.68;10.32;;;;;;;;;;4853790;29;20038;-96
2022/12/10 01:52:46;;;;;;;19.17;13.68;;;;;;;;;;4863787;29;20025;-96
2022/12/10 01:55:31;;;;;;;20.63;13.13;;;;;;;;;;4852490;29;20567;-96
2022/12/10 01:58:03;;;;;;;24.55;16.08;;;;;;;;;;4855647;29;20034;-95
2022/12/10 02:00:33;;;;;;;20.48;13.55;;;;;;;;;;4871803;29;20041;-96
2022/12/10 02:03:03;;;;;;;17.33;12.70;;;;;;;;;;4848760;29;20093;-92
2022/12/10 02:05:37;;;;;;;16.05;11.48;;;;;;;;;;4853892;29;20025;-95
2022/12/10 02:08:10;;;;;;;16.08;11.55;;;;;;;;;;4855449;29;20053;-96
2022/12/10 02:11:00;;;;;;;12.80;9.45;;;;;;;;;;4875881;29;20112;-96
2022/12/10 02:13:31;;;;;;;13.23;10.18;;;;;;;;;;4858871;29;20038;-95
2022/12/10 02:16:08;;;;;;;14.80;10.88;;;;;;;;;;4860864;29;20068;-95
2022/12/10 02:18:38;;;;;;;19.10;13.93;;;;;;;;;;4869124;29;20021;-94
2022/12/10 02:21:11;;;;;;;19.23;14.40;;;;;;;;;;4870917;29;20082;-94
2022/12/10 02:23:40;;;;;;;19.90;13.23;;;;;;;;;;4854499;29;20010;-96
2022/12/10 02:26:24;;;;;;;18.55;12.60;;;;;;;;;;4875074;29;20033;-96
2022/12/10 02:29:06;;;;;;;17.27;11.93;;;;;;;;;;4859254;29;20097;-95
2022/12/10 02:31:33;;;;;;;20.85;13.55;;;;;;;;;;4855321;29;20132;-92
2022/12/10 02:34:06;;;;;;;19.45;13.05;;;;;;;;;;4855292;29;20041;-95
2022/12/10 02:36:33;;;;;;;;;;;;;;;;;;4876817;29;20029;-96
2022/12/10 02:39:01;;;;;;;16.88;11.70;;;;;;;;;;4857251;29;19908;-96
2022/12/10 02:41:34;;;;;;;19.73;13.57;;;;;;;;;;4853635;29;20093;-96
2022/12/10 02:44:04;;;;;;;17.95;12.25;;;;;;;;;;4858951;29;20037;-96
2022/12/10 02:46:32;;;;;;;18.83;13.45;;;;;;;;;;4855732;29;20034;-96
2022/12/10 02:49:04;;;;;;;18.65;13.32;;;;;;;;;;4860008;29;20033;-96
2022/12/10 02:51:33;;;;;;;17.17;12.75;;;;;;;;;;4878655;29;20038;-94
2022/12/10 02:54:04;;;;;;;21.98;15.32;;;;;;;;;;4861201;29;20132;-96
2022/12/10 02:56:33;;;;;;;21.60;13.48;;;;;;;;;;4857484;29;20057;-93
2022/12/10 02:59:00;;;;;;;19.65;13.68;;;;;;;;;;4871012;29;20060;-94
2022/12/10 03:01:26;;;;;;;23.70;14.32;;;;;;;;;;4853094;29;20068;-94
2022/12/10 03:03:58;;;;;;;21.52;14.88;;;;;;;;;;4851182;29;20033;-94
2022/12/10 03:06:41;;;;;;;23.33;15.48;;;;;;;;;;4849015;29;20136;-95
2022/12/10 03:09:13;;;;;;;23.02;16.02;;;;;;;;;;4862293;29;20082;-94
2022/12/10 03:11:41;;;;;;;26.30;16.70;;;;;;;;;;4862337;29;20048;-95
2022/12/10 03:14:15;;;;;;;24.30;16.42;;;;;;;;;;4855721;29;20464;-94
2022/12/10 03:17:02;;;;;;;23.10;15.18;;;;;;;;;;4860147;29;20034;-95
2022/12/10 03:19:41;;;;;;;23.83;15.85;;;;;;;;;;4861110;29;20034;-96
2022/12/10 03:22:08;;;;;;;26.35;16.92;;;;;;;;;;4853529;29;20110;-90
2022/12/10 03:40:12;;;;;;;24.63;15.48;;;;;;;;;;4879413;29;20060;-94
2022/12/10 04:49:37;;;;;;;20.25;13.25;;;;;;;;;;1651221;23;21603;-91
2022/12/10 04:52:08;;;;;;;22.70;14.35;;;;;;;;;;4826471;29;20046;-96
2022/12/10 04:55:10;;;;;;;21.92;14.23;;;;;;;;;;4824164;29;20034;-91
2022/12/10 04:57:42;;;;;;;21.10;12.93;;;;;;;;;;4825146;29;20042;-96
2022/12/10 05:00:24;;;;;;;20.55;13.10;;;;;;;;;;4825663;29;20029;-96
2022/12/10 05:03:06;;;;;;;21.63;13.07;;;;;;;;;;4823943;29;20041;-93
2022/12/10 05:05:34;;;;;;;19.08;12.00;;;;;;;;;;4821441;29;20070;-91
2022/12/10 05:08:29;;;;;;;20.67;12.80;;;;;;;;;;4818468;29;20058;-95
2022/12/10 05:11:08;;;;;;;17.83;11.65;;;;;;;;;;4826194;29;20045;-96
2022/12/10 05:13:41;;;;;;;17.73;11.80;;;;;;;;;;4826728;29;20094;-96
2022/12/10 05:16:21;;;;;;;18.55;11.13;;;;;;;;;;4827349;29;20027;-94
2022/12/10 05:18:56;;;;;;;18.70;11.18;;;;;;;;;;4834643;29;20026;-95
2022/12/10 05:24:52;;;;;;;17.77;10.90;;;;;;;;;;4841770;29;20053;-95
2022/12/10 05:27:22;;;;;;;17.23;9.38;;;;;;;;;;4799278;29;20046;-96
2022/12/10 05:29:59;;;;;;;16.58;10.70;;;;;;;;;;4805022;29;20504;-96
2022/12/10 05:32:51;;;;;;;;;;;;;;;;;;;;;
2022/12/10 05:35:27;;;;;;;14.23;9.38;;;;;;;;;;4841506;29;20058;-96
2022/12/10 05:38:03;;;;;;;16.08;10.45;;;;;;;;;;4826360;29;20055;-96
2022/12/10 05:40:35;;;;;;;18.38;10.50;;;;;;;;;;4823197;29;20046;-95
2022/12/10 05:43:04;;;;;;;15.88;9.30;;;;;;;;;;4843831;29;20147;-95
2022/12/10 05:45:54;;;;;;;17.58;11.10;;;;;;;;;;4846244;29;20103;-95
2022/12/10 05:48:30;;;;;;;16.95;10.40;;;;;;;;;;4843629;29;20500;-95
2022/12/10 06:11:43;;;;;;;20.90;12.15;;;;;;;;;;4891477;29;20061;-96
2022/12/10 06:14:14;;;;;;;22.25;12.43;;;;;;;;;;4875753;29;20017;-96
2022/12/10 06:17:35;;;;;;;20.92;12.80;;;;;;;;;;4889040;29;20055;-96
2022/12/10 06:23:24;;;;;;;23.67;12.52;;;;;;;;;;4886547;29;20024;-96
2022/12/10 06:41:43;;;;;;;22.58;14.98;;;;;;;;;;4889404;29;20071;-93
2022/12/10 06:44:33;;;;;;;21.65;13.18;;;;;;;;;;4870103;29;20040;-95
2022/12/10 06:52:12;;;;;;;20.23;13.57;;;;;;;;;;4876159;29;20072;-95
2022/12/10 06:54:54;;;;;;;;;;;;;;;;;;;;;
2022/12/10 06:57:40;;;;;;;23.00;14.30;;;;;;;;;;4873125;29;20116;-96
2022/12/10 07:00:17;;;;;;;22.10;14.15;;;;;;;;;;4875851;29;20034;-94
2022/12/10 07:02:49;;;;;;;22.63;14.32;;;;;;;;;;4869468;29;20041;-94
2022/12/10 07:05:25;;;;;;;24.40;15.20;;;;;;;;;;4879243;29;20034;-91
2022/12/10 07:08:13;;;;;;;22.42;14.65;;;;;;;;;;4880473;29;20041;-94
2022/12/10 07:16:34;;;;;;;19.75;11.88;;;;;;;;;;4898472;23;20049;-95
2022/12/10 07:19:16;;;;;;;17.48;11.90;;;;;;;;;;4878837;29;20082;-96
2022/12/10 07:25:03;;;;;;;18.33;12.10;;;;;;;;;;4857120;29;20030;-92
2022/12/10 07:27:31;;;;;;;20.85;13.55;;;;;;;;;;4898936;23;20070;-94
2022/12/10 07:30:37;;;;;;;;;;;;;;;;;;;;;
2022/12/10 07:33:31;;;;;;;;;;;;;;;;;;;;;
2022/12/10 07:39:04;;;;;;;26.83;15.85;;;;;;;;;;4981216;23;20075;-93
2022/12/10 07:41:36;;;;;;;24.77;15.48;;;;;;;;;;4870131;29;20056;-94
2022/12/10 07:44:06;;;;;;;25.77;16.33;;;;;;;;;;4833762;29;20037;-95
2022/12/10 07:46:33;;;;;;;25.23;15.75;;;;;;;;;;4871922;29;20025;-94
2022/12/10 07:49:01;;;;;;;22.98;15.05;;;;;;;;;;4877706;29;20100;-90
2022/12/10 07:51:27;;;;;;;26.70;17.20;;;;;;;;;;4868113;29;20136;-92
2022/12/10 07:53:54;;;;;;;25.52;16.42;;;;;;;;;;4866791;29;20032;-94
2022/12/10 07:56:45;;;;;;;22.40;14.65;;;;;;;;;;4871117;29;20037;-90
2022/12/10 07:59:14;;;;;;;61.45;38.88;;;;;;;;;;4856362;29;20033;-95
2022/12/10 08:01:50;;;;;;;51.25;32.20;;;;;;;;;;4880710;29;20036;-95
2022/12/10 08:04:17;;;;;;;25.65;15.23;;;;;;;;;;4881933;29;20033;-90
2022/12/10 08:06:51;;;;;;;26.02;16.45;;;;;;;;;;4864064;29;20037;-92
2022/12/10 08:09:27;;;;;;;;;;;;;;;;;;;;;
2022/12/10 08:11:57;;;;;;;24.55;16.00;;;;;;;;;;4867591;29;20048;-96
2022/12/10 08:14:47;;;;;;;24.25;16.25;;;;;;;;;;4874296;29;20116;-93
2022/12/10 08:17:23;;;;;;;26.23;16.50;;;;;;;;;;4871955;29;20065;-96
2022/12/10 08:23:33;;;;;;;27.83;17.20;;;;;;;;;;4865531;29;20506;-95
2022/12/10 08:26:31;;;;;;;24.98;16.95;;;;;;;;;;4870710;29;20025;-95
2022/12/10 08:28:58;;;;;;;26.40;15.80;;;;;;;;;;4853594;29;20045;-89
2022/12/10 08:31:47;;;;;;;25.00;15.75;;;;;;;;;;4873415;29;20399;-95
2022/12/10 08:34:45;;;;;;;25.65;16.67;;;;;;;;;;4856492;29;20038;-96
2022/12/10 08:37:14;;;;;;;25.00;16.63;;;;;;;;;;4854296;29;20041;-96
2022/12/10 08:39:40;;;;;;;29.17;18.77;;;;;;;;;;4850487;29;20038;-94
2022/12/10 08:42:06;;;;;;;25.63;17.83;;;;;;;;;;4853614;29;20033;-94
2022/12/10 08:44:34;;;;;;;31.45;19.38;;;;;;;;;;4852295;29;20022;-91
2022/12/10 08:47:01;;;;;;;26.58;17.05;;;;;;;;;;4866484;29;20033;-91
2022/12/10 09:07:36;;;;;;;28.42;18.02;;;;;;;;;;4869776;29;20041;-95
2022/12/10 09:10:05;;;;;;;28.92;17.17;;;;;;;;;;4874959;29;20053;-95
2022/12/10 09:35:49;;;;;;;32.78;18.75;;;;;;;;;;4885463;29;20052;-95
2022/12/10 09:38:16;;;;;;;34.03;19.30;;;;;;;;;;4877164;29;20057;-93
2022/12/10 09:40:47;;;;;;;56.75;31.80;;;;;;;;;;4875085;29;20033;-94
2022/12/10 09:43:45;;;;;;;69.57;36.03;;;;;;;;;;4876430;29;20067;-94
2022/12/10 09:46:24;;;;;;;36.42;20.95;;;;;;;;;;4864954;29;20033;-93
2022/12/10 09:48:53;;;;;;;32.08;18.65;;;;;;;;;;4874973;29;20052;-91
2022/12/10 09:51:23;;;;;;;31.67;18.95;;;;;;;;;;4878769;29;20138;-95
2022/12/10 09:54:01;;;;;;;30.60;18.33;;;;;;;;;;4890787;29;20021;-94
2022/12/10 09:56:58;;;;;;;30.83;18.50;;;;;;;;;;4872262;29;20072;-95
2022/12/10 09:59:31;;;;;;;31.35;20.88;;;;;;;;;;4889902;29;20510;-96
2022/12/10 10:02:16;;;;;;;30.60;18.13;;;;;;;;;;4877096;29;20081;-92
2022/12/10 10:04:45;;;;;;;31.40;18.90;;;;;;;;;;4886373;29;20033;-92
2022/12/10 10:07:40;;;;;;;32.60;20.50;;;;;;;;;;4866046;29;20041;-95
2022/12/10 10:10:50;;;;;;;;;;;;;;;;;;;;;
2022/12/10 10:13:50;;;;;;;;;;;;;;;;;;;;;
2022/12/10 10:20:01;;;;;;;29.30;18.05;;;;;;;;;;4820749;29;20058;-94
2022/12/10 10:22:45;;;;;;;28.52;18.25;;;;;;;;;;4831005;29;20092;-96
2022/12/10 10:25:40;;;;;;;27.88;18.25;;;;;;;;;;4857709;29;20045;-92
2022/12/10 10:28:45;;;;;;;;;;;;;;;;;;;;;
2022/12/10 10:31:30;;;;;;;30.08;17.83;;;;;;;;;;4869983;29;20064;-96
2022/12/10 10:34:49;;;;;;;29.25;18.30;;;;;;;;;;4875965;29;20037;-96
2022/12/10 10:37:38;;;;;;;26.88;16.17;;;;;;;;;;4839697;29;20039;-93
2022/12/10 10:40:21;;;;;;;;;;;;;;;;;;;;;
2022/12/10 10:42:48;;;;;;;29.48;19.13;;;;;;;;;;4832879;29;20117;-90
2022/12/10 10:45:33;;;;;;;27.98;18.17;;;;;;;;;;4834432;29;20111;-95
2022/12/10 10:51:25;;;;;;;27.80;17.60;;;;;;;;;;4860882;29;20104;-96
2022/12/10 10:53:55;;;;;;;30.98;17.10;;;;;;;;;;4872050;29;20034;-93
2022/12/10 10:56:42;;;;;;;30.35;19.52;;;;;;;;;;4881966;29;20033;-91
2022/12/10 10:59:17;;;;;;;31.58;19.02;;;;;;;;;;4882395;29;20021;-90
2022/12/10 11:01:48;;;;;;;31.20;18.77;;;;;;;;;;4885797;29;20037;-95
2022/12/10 11:04:15;;;;;;;32.13;19.48;;;;;;;;;;4870817;29;20029;-93
2022/12/10 11:06:42;;;;;;;30.13;17.35;;;;;;;;;;4868365;29;20068;-96
2022/12/10 11:09:08;;;;;;;31.73;18.35;;;;;;;;;;4867135;29;20025;-92
2022/12/10 11:11:36;;;;;;;32.13;18.65;;;;;;;;;;4866437;29;20051;-94
2022/12/10 11:14:21;;;;;;;30.80;18.98;;;;;;;;;;4866948;29;20021;-94
2022/12/10 11:16:47;;;;;;;33.10;19.50;;;;;;;;;;4859330;29;20044;-90
2022/12/10 11:19:23;;;;;;;33.95;20.52;;;;;;;;;;4866124;29;20097;-93
2022/12/10 11:21:49;;;;;;;33.10;21.15;;;;;;;;;;4866925;29;20073;-94
2022/12/10 11:24:18;;;;;;;35.05;20.45;;;;;;;;;;4867381;29;20037;-95
2022/12/10 11:27:05;;;;;;;33.10;19.17;;;;;;;;;;4884721;29;20056;-95
2022/12/10 11:29:49;;;;;;;33.78;20.30;;;;;;;;;;4865539;29;20068;-95
2022/12/10 11:32:22;;;;;;;33.45;20.25;;;;;;;;;;4867883;29;20045;-93
2022/12/10 11:35:01;;;;;;;38.13;25.25;;;;;;;;;;4866948;29;20049;-93
2022/12/10 11:37:31;;;;;;;35.00;20.58;;;;;;;;;;4863063;29;20151;-93
2022/12/10 11:40:02;;;;;;;31.02;19.83;;;;;;;;;;4868342;29;20124;-93
2022/12/10 11:42:28;;;;;;;35.42;21.02;;;;;;;;;;4869917;29;20034;-91
2022/12/10 11:45:02;;;;;;;35.38;22.70;;;;;;;;;;4872476;29;20030;-96
2022/12/10 11:47:39;;;;;;;34.50;21.17;;;;;;;;;;4930968;23;20063;-91
2022/12/10 11:50:21;;;;;;;30.63;19.25;;;;;;;;;;4878070;29;20092;-94
2022/12/10 11:52:52;;;;;;;56.75;47.55;;;;;;;;;;4873529;29;20049;-94
2022/12/10 11:55:19;;;;;;;42.90;31.42;;;;;;;;;;4889314;29;20032;-90
2022/12/10 11:58:05;;;;;;;46.00;32.28;;;;;;;;;;4876105;29;20041;-94
2022/12/10 12:00:40;;;;;;;68.40;52.28;;;;;;;;;;4893991;29;20021;-96
2022/12/10 12:03:23;;;;;;;33.13;20.98;;;;;;;;;;4892090;29;20029;-93
2022/12/10 12:06:04;;;;;;;33.70;22.17;;;;;;;;;;4877918;29;20431;-93
2022/12/10 12:08:52;;;;;;;34.55;21.33;;;;;;;;;;4876778;29;20128;-92
2022/12/10 12:11:34;;;;;;;33.72;21.92;;;;;;;;;;4895331;29;20037;-92
2022/12/10 12:22:56;;;;;;;35.07;22.50;;;;;;;;;;4855004;29;20660;-89
2022/12/10 12:25:43;;;;;;;36.95;21.88;;;;;;;;;;4874846;23;20062;-95
2022/12/10 12:33:21;;;;;;;34.80;20.75;;;;;;;;;;4872734;29;20157;-93
2022/12/10 12:35:53;;;;;;;31.83;20.47;;;;;;;;;;4852548;29;20487;-94
2022/12/10 12:38:24;;;;;;;33.47;20.57;;;;;;;;;;4851698;29;20057;-95
2022/12/10 12:41:14;;;;;;;37.60;22.95;;;;;;;;;;4857366;29;20037;-90
2022/12/10 12:43:45;;;;;;;34.50;21.60;;;;;;;;;;4847249;29;20083;-95
2022/12/10 12:46:14;;;;;;;35.78;21.70;;;;;;;;;;5026458;23;20073;-90
2022/12/10 12:48:51;;;;;;;35.33;22.17;;;;;;;;;;4884658;29;20036;-89
2022/12/10 12:51:29;;;;;;;34.45;20.80;;;;;;;;;;4877433;29;20041;-92
2022/12/10 12:53:56;;;;;;;39.85;22.92;;;;;;;;;;4867813;29;20029;-91
2022/12/10 12:56:22;;;;;;;34.72;21.33;;;;;;;;;;4866300;29;20142;-91
2022/12/10 12:59:07;;;;;;;36.70;22.30;;;;;;;;;;4868767;29;20040;-90
2022/12/10 13:01:43;;;;;;;36.17;22.15;;;;;;;;;;4868894;29;20063;-94
2022/12/10 13:04:10;;;;;;;35.22;21.63;;;;;;;;;;4865713;29;20029;-88
2022/12/10 13:06:37;;;;;;;36.28;21.52;;;;;;;;;;4869795;29;20040;-90
2022/12/10 13:09:13;;;;;;;35.67;22.42;;;;;;;;;;4870556;29;20025;-91
2022/12/10 13:11:40;;;;;;;35.03;21.30;;;;;;;;;;4877032;29;20065;-93
2022/12/10 13:14:10;;;;;;;36.67;22.30;;;;;;;;;;4889621;29;20017;-89
2022/12/10 13:16:45;;;;;;;33.38;20.98;;;;;;;;;;4869600;29;20033;-96
2022/12/10 13:19:17;;;;;;;40.05;23.65;;;;;;;;;;4887341;29;20025;-95
2022/12/10 13:22:03;;;;;;;35.53;21.92;;;;;;;;;;4873236;29;20056;-89
2022/12/10 13:24:44;;;;;;;36.63;21.92;;;;;;;;;;4873894;29;20017;-89
2022/12/10 13:27:18;;;;;;;35.92;21.52;;;;;;;;;;4886114;29;20041;-92
2022/12/10 13:29:50;;;;;;;33.45;20.92;;;;;;;;;;4870703;29;20041;-94
2022/12/10 13:32:41;;;;;;;37.97;21.35;;;;;;;;;;4889206;29;20033;-96
2022/12/10 13:35:30;;;;;;;;;;;;;;;;;;;;;
2022/12/10 13:44:32;;;;;;;36.30;21.13;;;;;;;;;;4894701;29;20169;-96
2022/12/10 13:47:17;;;;;;;35.40;21.23;;;;;;;;;;4898578;29;20045;-94
2022/12/10 13:50:10;;;;;;;35.75;20.65;;;;;;;;;;4878099;29;20108;-95
2022/12/10 13:52:36;;;;;;;34.38;20.73;;;;;;;;;;4856441;29;20056;-93
2022/12/10 13:55:22;;;;;;;39.28;23.25;;;;;;;;;;4872014;29;20093;-94
2022/12/10 13:58:04;;;;;;;37.45;20.90;;;;;;;;;;4851008;29;20045;-96
2022/12/10 14:00:39;;;;;;;37.28;22.25;;;;;;;;;;4861856;29;20065;-93
2022/12/10 14:03:23;;;;;;;41.35;22.17;;;;;;;;;;4881959;29;20214;-94
2022/12/10 14:06:18;;;;;;;40.25;23.02;;;;;;;;;;4879965;29;20033;-94
2022/12/10 14:09:58;;;;;;;41.08;22.42;;;;;;;;;;4880429;29;20112;-96
2022/12/10 14:12:17;;;;;;;41.95;22.75;;;;;;;;;;4868486;29;20603;-89
2022/12/10 14:14:48;;;;;;;36.45;21.98;;;;;;;;;;4848786;29;20030;-94
2022/12/10 14:17:41;;;;;;;38.92;22.77;;;;;;;;;;4858260;29;20530;-92
2022/12/10 14:20:19;;;;;;;38.17;21.08;;;;;;;;;;4861481;29;20025;-94
2022/12/10 14:22:49;;;;;;;43.67;22.42;;;;;;;;;;4859035;29;20041;-95
2022/12/10 14:25:24;;;;;;;39.78;22.65;;;;;;;;;;4882230;29;20657;-92
2022/12/10 14:27:56;;;;;;;40.75;23.67;;;;;;;;;;4862258;29;20033;-92
2022/12/10 14:30:51;;;;;;;45.08;23.67;;;;;;;;;;4895285;29;20033;-92
2022/12/10 14:33:34;;;;;;;42.53;24.35;;;;;;;;;;4905334;28;20029;-96
2022/12/10 14:36:17;;;;;;;;;;;;;;;;;;;;;
2022/12/10 14:38:59;;;;;;;45.25;24.08;;;;;;;;;;4901487;29;20092;-93
2022/12/10 14:41:48;;;;;;;46.42;25.52;;;;;;;;;;4872119;29;20208;-95
2022/12/10 14:45:26;;;;;;;42.88;23.63;;;;;;;;;;4864566;29;20049;-94
2022/12/10 14:47:27;;;;;;;42.42;24.15;;;;;;;;;;4885178;29;20052;-94
2022/12/10 14:49:55;;;;;;;43.97;23.98;;;;;;;;;;4874136;29;20035;-95
2022/12/10 14:52:23;;;;;;;42.95;24.50;;;;;;;;;;4872215;29;20076;-95
2022/12/10 14:54:51;;;;;;;44.95;24.83;;;;;;;;;;4876415;29;20029;-93
2022/12/10 14:57:17;;;;;;;44.17;24.05;;;;;;;;;;4879257;29;20053;-95
2022/12/10 15:00:03;;;;;;;42.88;24.38;;;;;;;;;;4885974;29;20043;-93
2022/12/10 15:02:49;;;;;;;46.65;25.02;;;;;;;;;;4896252;29;20056;-93
2022/12/10 15:05:19;;;;;;;46.05;25.40;;;;;;;;;;4898227;29;20164;-93
2022/12/10 15:45:26;;;;;;;52.63;25.20;;;;;;;;;;4965409;23;20281;-95
2022/12/10 15:48:21;;;;;;;52.85;26.42;;;;;;;;;;4844048;29;20029;-96
2022/12/10 16:00:31;;;;;;;48.53;25.10;;;;;;;;;;4827157;29;20059;-94
2022/12/10 16:06:06;;;;;;;47.08;23.02;;;;;;;;;;4833199;29;20038;-92
2022/12/10 16:08:34;;;;;;;52.75;25.85;;;;;;;;;;4833239;29;20038;-93
2022/12/10 16:11:03;;;;;;;47.28;24.08;;;;;;;;;;4833591;29;20080;-93
2022/12/10 16:13:41;;;;;;;49.55;25.33;;;;;;;;;;4864452;29;20030;-93
2022/12/10 16:16:08;;;;;;;48.63;25.02;;;;;;;;;;4868632;29;20766;-92
2022/12/10 16:18:45;;;;;;;47.70;24.58;;;;;;;;;;4864921;29;20042;-95
2022/12/10 16:21:11;;;;;;;49.75;23.95;;;;;;;;;;4873313;29;20027;-91
2022/12/10 16:23:53;;;;;;;44.53;22.20;;;;;;;;;;4967450;23;20065;-90
2022/12/10 16:26:23;;;;;;;50.65;25.05;;;;;;;;;;4860973;29;20033;-93
2022/12/10 16:28:54;;;;;;;48.20;23.20;;;;;;;;;;4872431;29;20099;-90
2022/12/10 16:31:24;;;;;;;49.35;23.40;;;;;;;;;;4889913;29;20103;-91
2022/12/10 16:33:55;;;;;;;49.95;24.77;;;;;;;;;;4869819;29;20029;-93
2022/12/10 16:36:27;;;;;;;46.40;22.73;;;;;;;;;;4853741;29;20029;-91
2022/12/10 16:38:53;;;;;;;46.22;23.88;;;;;;;;;;4856630;29;20059;-89
2022/12/10 16:41:26;;;;;;;44.58;22.95;;;;;;;;;;4859328;29;20045;-91
2022/12/10 16:43:55;;;;;;;48.42;24.58;;;;;;;;;;4854829;29;20040;-92
2022/12/10 16:46:21;;;;;;;51.75;24.73;;;;;;;;;;4852389;29;20038;-91
2022/12/10 16:48:47;;;;;;;50.25;25.98;;;;;;;;;;4882116;29;20037;-91
2022/12/10 16:51:30;;;;;;;49.65;24.58;;;;;;;;;;4881951;29;20476;-93
2022/12/10 16:53:58;;;;;;;51.05;25.85;;;;;;;;;;4881131;29;20038;-91
2022/12/10 16:56:24;;;;;;;48.72;25.73;;;;;;;;;;4881927;29;20025;-90
2022/12/10 17:05:20;;;;;;;;;;;;;;;;;;;;;
2022/12/10 17:07:48;;;;;;;51.08;25.17;;;;;;;;;;4856159;29;20050;-93
2022/12/10 17:10:14;;;;;;;50.42;25.40;;;;;;;;;;4838501;29;20038;-94
2022/12/10 17:12:41;;;;;;;51.33;25.42;;;;;;;;;;4835067;29;20415;-94
2022/12/10 17:15:13;;;;;;;52.10;25.10;;;;;;;;;;4848099;29;20038;-95
2022/12/10 17:17:49;;;;;;;49.35;24.70;;;;;;;;;;4835342;29;20041;-94
2022/12/10 17:20:46;;;;;;;51.35;25.63;;;;;;;;;;4842664;29;20532;-94
2022/12/10 17:23:31;;;;;;;54.80;26.02;;;;;;;;;;4840048;29;20029;-91
2022/12/10 17:26:00;;;;;;;51.17;26.08;;;;;;;;;;4848871;29;20054;-94
2022/12/10 17:28:36;;;;;;;49.75;24.23;;;;;;;;;;4840005;29;20034;-94
2022/12/10 17:31:45;;;;;;;;;;;;;;;;;;;;;
2022/12/10 17:34:31;;;;;;;54.72;25.10;;;;;;;;;;4845808;29;20022;-95
2022/12/10 17:37:17;;;;;;;50.85;23.90;;;;;;;;;;4840099;29;20049;-93
2022/12/10 17:39:44;;;;;;;58.50;27.08;;;;;;;;;;4853599;29;20061;-93
2022/12/10 17:48:37;;;;;;;53.03;25.02;;;;;;;;;;4857188;29;20126;-94
2022/12/10 17:51:21;;;;;;;61.55;27.35;;;;;;;;;;4886250;29;20105;-95
2022/12/10 17:54:13;;;;;;;61.33;28.50;;;;;;;;;;4860245;29;20155;-93
2022/12/10 17:56:46;;;;;;;58.28;27.33;;;;;;;;;;4858653;29;20207;-94
2022/12/10 17:59:15;;;;;;;61.28;28.35;;;;;;;;;;4851413;29;20022;-94
2022/12/10 18:08:28;;;;;;;64.50;28.90;;;;;;;;;;4855820;29;20041;-91
2022/12/10 18:11:03;;;;;;;64.72;28.92;;;;;;;;;;4937385;23;20042;-93
2022/12/10 18:13:33;;;;;;;62.22;29.63;;;;;;;;;;4891860;29;20021;-95
2022/12/10 18:16:18;;;;;;;68.78;30.45;;;;;;;;;;4873083;29;20033;-93
2022/12/10 18:18:44;;;;;;;67.10;30.27;;;;;;;;;;4885675;29;20046;-90
2022/12/10 18:24:25;;;;;;;60.90;27.67;;;;;;;;;;4878192;29;20070;-94
2022/12/10 18:26:53;;;;;;;62.45;29.13;;;;;;;;;;4869777;29;20049;-93
2022/12/10 18:29:25;;;;;;;60.50;27.75;;;;;;;;;;4874860;29;20045;-95
2022/12/10 18:31:51;;;;;;;62.75;29.15;;;;;;;;;;4855663;29;20041;-92
2022/12/10 18:34:24;;;;;;;61.50;27.23;;;;;;;;;;4884099;29;20065;-91
2022/12/10 18:36:50;;;;;;;63.15;28.08;;;;;;;;;;4858445;29;20049;-93
2022/12/10 18:39:21;;;;;;;60.45;27.17;;;;;;;;;;4867606;29;20121;-93
2022/12/10 18:41:51;;;;;;;56.25;26.77;;;;;;;;;;4883087;29;20029;-94
2022/12/10 18:44:41;;;;;;;56.88;27.30;;;;;;;;;;4890489;29;20010;-94
2022/12/10 18:47:30;;;;;;;53.90;25.27;;;;;;;;;;4873374;29;20030;-93
2022/12/10 18:50:02;;;;;;;55.78;26.13;;;;;;;;;;4865303;29;20057;-94
2022/12/10 18:52:35;;;;;;;58.08;25.52;;;;;;;;;;4893428;29;20069;-93
2022/12/10 18:55:12;;;;;;;;;;;;;;;;;;;;;
2022/12/10 18:57:50;;;;;;;48.33;23.77;;;;;;;;;;4877168;29;20116;-95
2022/12/10 19:00:16;;;;;;;52.33;24.98;;;;;;;;;;5098137;23;20024;-94
2022/12/10 19:02:43;;;;;;;48.65;23.02;;;;;;;;;;4855978;29;20065;-94
2022/12/10 19:05:19;;;;;;;47.70;23.15;;;;;;;;;;4859556;29;20057;-94
2022/12/10 19:07:48;;;;;;;51.85;25.05;;;;;;;;;;4856335;29;20090;-93
2022/12/10 19:10:20;;;;;;;48.90;23.13;;;;;;;;;;4842105;29;20034;-96
2022/12/10 19:13:17;;;;;;;;;;;;;;;;;;;;;
2022/12/10 19:15:59;;;;;;;53.65;23.60;;;;;;;;;;4843675;29;20027;-96
2022/12/10 19:18:45;;;;;;;53.85;24.92;;;;;;;;;;4846026;29;20113;-96
2022/12/10 19:21:25;;;;;;;49.47;23.10;;;;;;;;;;5050126;23;20098;-96
2022/12/10 19:23:55;;;;;;;52.67;25.73;;;;;;;;;;4888898;29;20085;-96
2022/12/10 19:26:31;;;;;;;51.85;24.92;;;;;;;;;;4894204;29;20029;-95
2022/12/10 19:28:59;;;;;;;50.78;25.23;;;;;;;;;;4891401;29;20021;-95
2022/12/10 19:31:26;;;;;;;51.03;24.55;;;;;;;;;;4890479;29;20491;-91
2022/12/10 19:33:52;;;;;;;53.17;25.70;;;;;;;;;;4894336;29;20132;-91
2022/12/10 19:36:23;;;;;;;49.90;24.33;;;;;;;;;;4903763;29;20037;-94
2022/12/10 19:38:49;;;;;;;49.38;24.35;;;;;;;;;;4897109;29;20025;-94
2022/12/10 19:41:16;;;;;;;51.80;24.58;;;;;;;;;;4883329;29;20327;-94
2022/12/10 19:43:42;;;;;;;47.88;23.83;;;;;;;;;;4859955;29;20120;-93
2022/12/10 19:46:16;;;;;;;48.15;23.92;;;;;;;;;;4865349;29;20033;-94
2022/12/10 19:48:42;;;;;;;;;;;;;;;;;;4865019;29;20068;-93
2022/12/10 19:54:13;;;;;;;48.83;22.10;;;;;;;;;;4889272;23;20109;-92
2022/12/10 19:56:39;;;;;;;49.75;24.05;;;;;;;;;;4852149;29;20046;-94
2022/12/10 20:02:05;;;;;;;;;;;;;;;;;;4887598;23;20080;-93
2022/12/10 20:04:34;;;;;;;48.38;22.60;;;;;;;;;;4877946;29;19915;-94
2022/12/10 20:07:20;;;;;;;50.65;23.15;;;;;;;;;;4851770;29;20053;-91
2022/12/10 20:09:47;;;;;;;53.00;25.23;;;;;;;;;;4860936;29;20051;-92
2022/12/10 20:12:16;;;;;;;48.20;23.33;;;;;;;;;;4852929;29;20052;-91
2022/12/10 20:14:43;;;;;;;55.20;24.88;;;;;;;;;;4848466;29;20125;-93
2022/12/10 20:17:10;;;;;;;48.83;24.17;;;;;;;;;;4847853;29;20037;-94
2022/12/10 20:19:46;;;;;;;48.13;23.65;;;;;;;;;;4848361;29;20548;-94